Time;durP1;ratioP1;P1;durP2;ratioP2;P2;SDS_P1;SDS_P2;PMS_P1;PMS_P2;Temp;Humidity;BMP_temperature;BMP_pressure;BME280_temperature;BME280_humidity;BME280_pressure;Samples;Min_cycle;Max_cycle;Signal;HPM_P1;HPM_P2
2023/06/25 00:02:21;;;;;;;5.90;5.60;;;18.10;99.90;;;;;;5045234;28;20217;-58
2023/06/25 00:04:48;;;;;;;6.40;5.90;;;18.00;99.90;;;;;;5051132;28;20202;-58
2023/06/25 00:07:16;;;;;;;5.57;5.17;;;18.00;99.90;;;;;;5047620;28;20206;-58
2023/06/25 00:09:53;;;;;;;6.03;5.47;;;18.00;99.90;;;;;;5047255;28;20202;-58
2023/06/25 00:12:20;;;;;;;5.60;5.30;;;18.00;99.90;;;;;;5043772;28;20300;-58
2023/06/25 00:14:47;;;;;;;7.47;6.77;;;18.00;99.90;;;;;;5049932;28;20206;-58
2023/06/25 00:17:19;;;;;;;6.77;6.17;;;18.10;99.90;;;;;;5050705;28;20193;-58
2023/06/25 00:19:46;;;;;;;7.03;6.50;;;18.10;99.90;;;;;;5049146;28;20210;-58
2023/06/25 00:22:13;;;;;;;5.93;5.53;;;18.10;99.90;;;;;;5050394;28;20218;-58
2023/06/25 00:24:41;;;;;;;7.30;6.80;;;18.10;99.90;;;;;;5047529;28;20206;-58
2023/06/25 00:27:08;;;;;;;6.40;5.90;;;18.10;99.90;;;;;;5049608;28;20224;-58
2023/06/25 00:29:35;;;;;;;7.40;6.67;;;18.00;99.90;;;;;;5050940;28;20201;-58
2023/06/25 00:32:02;;;;;;;6.60;5.60;;;17.90;99.90;;;;;;5046159;28;20225;-58
2023/06/25 00:34:30;;;;;;;7.47;6.83;;;17.80;99.90;;;;;;5048091;28;20252;-57
2023/06/25 00:36:59;;;;;;;7.43;6.87;;;17.80;99.90;;;;;;5050544;28;20621;-58
2023/06/25 00:39:26;;;;;;;7.30;6.57;;;17.90;99.90;;;;;;5050219;28;20202;-58
2023/06/25 00:41:58;;;;;;;7.20;6.60;;;17.90;99.90;;;;;;5048243;28;20860;-58
2023/06/25 00:44:28;;;;;;;6.20;5.60;;;17.90;99.90;;;;;;5049892;28;20201;-58
2023/06/25 00:46:59;;;;;;;6.63;6.10;;;17.90;99.90;;;;;;5050562;28;20237;-58
2023/06/25 00:49:26;;;;;;;6.43;6.00;;;17.80;99.90;;;;;;5049851;28;20285;-57
2023/06/25 00:51:54;;;;;;;6.03;5.53;;;17.80;99.90;;;;;;5044440;28;20229;-58
2023/06/25 00:54:21;;;;;;;6.87;6.37;;;17.80;99.90;;;;;;5043381;28;20746;-58
2023/06/25 00:56:48;;;;;;;6.57;6.07;;;17.70;99.90;;;;;;5030459;28;20202;-58
2023/06/25 00:59:16;;;;;;;6.60;6.10;;;17.60;99.90;;;;;;5035308;28;20301;-58
2023/06/25 01:01:52;;;;;;;6.83;6.33;;;17.50;99.90;;;;;;5043958;28;20201;-58
2023/06/25 01:04:25;;;;;;;5.17;4.87;;;17.50;99.90;;;;;;5048485;28;20206;-58
2023/06/25 01:07:00;;;;;;;6.47;5.60;;;17.40;99.90;;;;;;5050347;28;20568;-58
2023/06/25 01:09:28;;;;;;;5.93;5.53;;;17.30;99.90;;;;;;5044865;28;20680;-58
2023/06/25 01:12:02;;;;;;;8.30;6.40;;;17.30;99.90;;;;;;5055173;28;20278;-58
2023/06/25 01:14:29;;;;;;;6.73;6.23;;;17.20;99.90;;;;;;5048336;28;20205;-58
2023/06/25 01:16:56;;;;;;;6.77;6.27;;;17.20;99.90;;;;;;5041503;28;20214;-58
2023/06/25 01:19:29;;;;;;;7.03;6.43;;;17.10;99.90;;;;;;5036444;28;20206;-58
2023/06/25 01:21:59;;;;;;;5.73;5.33;;;17.10;99.90;;;;;;5041990;28;20253;-58
2023/06/25 01:24:28;;;;;;;8.90;8.00;;;17.20;99.90;;;;;;5045823;28;20233;-57
2023/06/25 01:26:59;;;;;;;7.63;6.90;;;17.10;99.90;;;;;;5049386;28;20201;-57
2023/06/25 01:29:27;;;;;;;7.30;6.70;;;17.10;99.90;;;;;;5049109;28;20214;-58
2023/06/25 01:31:54;;;;;;;7.07;6.57;;;17.00;99.90;;;;;;5049640;28;20221;-60
2023/06/25 01:34:22;;;;;;;7.57;6.97;;;17.10;99.90;;;;;;5048820;28;20201;-58
2023/06/25 01:36:50;;;;;;;7.57;6.60;;;17.10;99.90;;;;;;5049791;28;20247;-58
2023/06/25 01:39:18;;;;;;;6.70;6.20;;;17.00;99.90;;;;;;5048362;28;20209;-58
2023/06/25 01:41:47;;;;;;;6.10;5.63;;;17.00;99.90;;;;;;5049736;28;20233;-58
2023/06/25 01:44:16;;;;;;;6.67;6.20;;;17.00;99.90;;;;;;5048768;28;20747;-57
2023/06/25 01:46:43;;;;;;;8.00;7.33;;;17.00;99.90;;;;;;5049552;28;20209;-58
2023/06/25 01:49:10;;;;;;;6.87;6.37;;;17.00;99.90;;;;;;5049736;28;20686;-58
2023/06/25 01:51:38;;;;;;;7.00;6.40;;;17.00;99.90;;;;;;5044777;28;20687;-58
2023/06/25 01:54:05;;;;;;;5.83;5.33;;;17.00;99.90;;;;;;5052850;28;20277;-58
2023/06/25 01:56:32;;;;;;;6.77;5.30;;;17.00;99.90;;;;;;5053199;28;20281;-58
2023/06/25 01:59:00;;;;;;;5.77;5.17;;;17.10;99.90;;;;;;5040069;28;20298;-58
2023/06/25 02:01:29;;;;;;;6.07;5.67;;;17.00;99.90;;;;;;5044223;28;20214;-58
2023/06/25 02:03:56;;;;;;;5.33;5.03;;;17.00;99.90;;;;;;5052298;28;20284;-58
2023/06/25 02:06:23;;;;;;;5.97;5.50;;;17.00;99.90;;;;;;5053570;28;20205;-58
2023/06/25 02:08:50;;;;;;;5.83;5.40;;;17.00;99.90;;;;;;5052821;28;20578;-58
2023/06/25 02:11:17;;;;;;;5.27;4.93;;;16.90;99.90;;;;;;5053097;28;20663;-58
2023/06/25 02:13:44;;;;;;;6.00;5.57;;;17.00;99.90;;;;;;5051256;28;20233;-58
2023/06/25 02:16:13;;;;;;;4.80;4.50;;;16.90;99.90;;;;;;5053147;28;20201;-58
2023/06/25 02:18:40;;;;;;;5.90;5.40;;;16.90;99.90;;;;;;5052322;28;21139;-58
2023/06/25 02:21:07;;;;;;;5.97;5.37;;;16.90;99.90;;;;;;5052484;28;20255;-58
2023/06/25 02:23:34;;;;;;;6.07;5.57;;;17.00;99.90;;;;;;5052793;28;20276;-58
2023/06/25 02:26:01;;;;;;;6.10;5.70;;;17.00;99.90;;;;;;5046137;28;20301;-58
2023/06/25 02:28:28;;;;;;;6.93;6.33;;;17.00;99.90;;;;;;5052018;28;20229;-58
2023/06/25 02:30:55;;;;;;;6.00;5.60;;;17.00;99.90;;;;;;5051496;28;20194;-58
2023/06/25 02:33:23;;;;;;;6.90;6.40;;;16.90;99.90;;;;;;5052445;28;20299;-58
2023/06/25 02:35:50;;;;;;;7.40;6.63;;;16.80;99.90;;;;;;5046121;28;20658;-58
2023/06/25 02:38:17;;;;;;;6.23;5.67;;;16.80;99.90;;;;;;5052581;28;20621;-58
2023/06/25 02:40:44;;;;;;;7.60;6.97;;;16.70;99.90;;;;;;5051696;28;20663;-58
2023/06/25 02:43:11;;;;;;;6.37;5.93;;;16.70;99.90;;;;;;5052259;28;20707;-58
2023/06/25 02:45:38;;;;;;;6.93;6.23;;;16.60;99.90;;;;;;5052880;28;20202;-58
2023/06/25 02:48:06;;;;;;;8.00;7.17;;;16.50;99.90;;;;;;5051796;28;20202;-58
2023/06/25 02:50:34;;;;;;;7.23;6.60;;;16.60;99.90;;;;;;5051856;28;20201;-58
2023/06/25 02:53:02;;;;;;;7.03;6.50;;;16.60;99.90;;;;;;5051958;28;20711;-58
2023/06/25 02:55:29;;;;;;;7.57;6.87;;;16.60;99.90;;;;;;5052333;28;20248;-58
2023/06/25 02:57:57;;;;;;;5.97;5.57;;;16.60;99.90;;;;;;5051075;28;20202;-58
2023/06/25 03:00:24;;;;;;;6.40;5.90;;;16.50;99.90;;;;;;5044487;28;20289;-58
2023/06/25 03:02:51;;;;;;;6.57;6.07;;;16.40;99.90;;;;;;5051277;28;20236;-58
2023/06/25 03:05:18;;;;;;;7.57;6.97;;;16.40;99.90;;;;;;5052209;28;20227;-58
2023/06/25 03:07:53;;;;;;;5.77;5.47;;;16.40;99.90;;;;;;5052161;28;20548;-58
2023/06/25 03:10:23;;;;;;;8.00;6.97;;;16.30;99.90;;;;;;5050977;28;20201;-58
2023/06/25 03:12:50;;;;;;;6.40;6.00;;;16.30;99.90;;;;;;5050468;28;20236;-58
2023/06/25 03:15:17;;;;;;;7.17;6.50;;;16.30;99.90;;;;;;5051963;28;20202;-58
2023/06/25 03:17:44;;;;;;;5.93;5.40;;;16.20;99.90;;;;;;5051927;28;20208;-58
2023/06/25 03:20:12;;;;;;;7.33;6.70;;;16.20;99.90;;;;;;5051014;28;20685;-58
2023/06/25 03:22:39;;;;;;;6.60;6.10;;;16.20;99.90;;;;;;5051808;28;20213;-58
2023/06/25 03:25:09;;;;;;;8.60;7.57;;;16.10;99.90;;;;;;5050806;28;20236;-58
2023/06/25 03:27:36;;;;;;;7.27;6.77;;;16.10;99.90;;;;;;5051699;28;20698;-58
2023/06/25 03:30:04;;;;;;;6.87;6.40;;;16.10;99.90;;;;;;5050935;28;20671;-58
2023/06/25 03:32:31;;;;;;;5.87;5.47;;;16.10;99.90;;;;;;5050640;28;20222;-58
2023/06/25 03:34:59;;;;;;;7.13;6.73;;;16.10;99.90;;;;;;5051510;28;20264;-58
2023/06/25 03:37:29;;;;;;;8.57;7.63;;;16.00;99.90;;;;;;5050302;28;20209;-58
2023/06/25 03:39:56;;;;;;;7.77;6.57;;;16.00;99.90;;;;;;5050729;28;20217;-58
2023/06/25 03:42:24;;;;;;;8.13;7.47;;;16.10;99.90;;;;;;5050390;28;20764;-58
2023/06/25 03:44:53;;;;;;;7.23;6.67;;;16.00;99.90;;;;;;5051498;28;20205;-58
2023/06/25 03:47:21;;;;;;;7.50;7.00;;;16.00;99.90;;;;;;5051289;28;20210;-58
2023/06/25 03:49:48;;;;;;;8.60;7.90;;;16.00;99.90;;;;;;5041282;28;20264;-58
2023/06/25 03:52:15;;;;;;;7.30;6.80;;;16.00;99.90;;;;;;5050836;28;20711;-58
2023/06/25 03:54:42;;;;;;;7.53;6.93;;;16.00;99.90;;;;;;5051189;28;20202;-58
2023/06/25 03:57:09;;;;;;;8.13;7.33;;;16.00;99.90;;;;;;5050061;28;20202;-58
2023/06/25 03:59:37;;;;;;;7.20;6.60;;;16.00;99.90;;;;;;5050344;28;20343;-58
2023/06/25 04:02:06;;;;;;;8.37;7.77;;;16.00;99.90;;;;;;5049955;28;20653;-58
2023/06/25 04:04:33;;;;;;;8.13;7.23;;;16.00;99.90;;;;;;5048265;28;20198;-58
2023/06/25 04:07:00;;;;;;;7.93;7.33;;;16.10;99.90;;;;;;5046037;28;20265;-58
2023/06/25 04:09:27;;;;;;;8.70;8.00;;;16.10;99.90;;;;;;5037621;28;20267;-58
2023/06/25 04:11:54;;;;;;;7.00;6.40;;;16.10;99.90;;;;;;5050672;28;20237;-58
2023/06/25 04:14:21;;;;;;;7.80;7.10;;;16.20;99.90;;;;;;5038318;28;20821;-58
2023/06/25 04:16:49;;;;;;;7.77;7.00;;;16.30;99.90;;;;;;5030521;28;20740;-58
2023/06/25 04:19:16;;;;;;;7.43;6.73;;;16.40;99.90;;;;;;5038905;28;20210;-58
2023/06/25 04:21:43;;;;;;;6.83;6.43;;;16.40;99.90;;;;;;5048273;28;20209;-58
2023/06/25 04:24:10;;;;;;;8.23;7.43;;;16.50;99.90;;;;;;5039956;28;20202;-58
2023/06/25 04:26:38;;;;;;;9.30;8.43;;;16.60;99.90;;;;;;5047903;28;20214;-58
2023/06/25 04:29:10;;;;;;;8.13;7.43;;;16.60;99.90;;;;;;5049001;28;20210;-58
2023/06/25 04:31:37;;;;;;;19.63;8.27;;;16.60;99.90;;;;;;5049686;28;20682;-58
2023/06/25 04:34:06;;;;;;;7.47;6.87;;;16.70;99.90;;;;;;5042339;28;20234;-58
2023/06/25 04:36:33;;;;;;;8.87;8.07;;;16.80;99.90;;;;;;5048692;28;20664;-58
2023/06/25 04:39:01;;;;;;;8.23;7.63;;;16.80;99.90;;;;;;5039286;28;20211;-58
2023/06/25 04:41:28;;;;;;;7.23;6.63;;;16.90;99.90;;;;;;5044989;28;20233;-58
2023/06/25 04:43:55;;;;;;;7.07;6.57;;;17.00;99.90;;;;;;5049356;28;20202;-58
2023/06/25 04:46:22;;;;;;;8.07;7.37;;;17.10;99.90;;;;;;5049471;28;20252;-58
2023/06/25 04:48:50;;;;;;;7.37;6.87;;;17.20;99.90;;;;;;5048867;28;20259;-58
2023/06/25 04:51:19;;;;;;;6.57;6.07;;;17.30;99.90;;;;;;5045164;28;20208;-58
2023/06/25 04:53:46;;;;;;;7.33;6.83;;;17.40;99.90;;;;;;5048328;28;20217;-58
2023/06/25 04:56:15;;;;;;;8.30;7.60;;;17.50;99.90;;;;;;5047454;28;20373;-58
2023/06/25 04:58:42;;;;;;;7.83;7.23;;;17.60;99.90;;;;;;5049231;28;20647;-58
2023/06/25 05:01:09;;;;;;;7.83;7.23;;;17.70;99.90;;;;;;5048500;28;20271;-58
2023/06/25 05:03:36;;;;;;;6.23;5.73;;;17.70;99.90;;;;;;5042300;28;20217;-58
2023/06/25 05:06:03;;;;;;;7.50;6.90;;;17.80;99.90;;;;;;5049573;28;20258;-58
2023/06/25 05:08:31;;;;;;;6.97;6.53;;;18.00;99.90;;;;;;5049003;28;20244;-58
2023/06/25 05:10:58;;;;;;;7.17;6.67;;;18.20;99.90;;;;;;5049486;28;20206;-58
2023/06/25 05:13:25;;;;;;;7.97;7.27;;;18.50;99.90;;;;;;5049269;28;20226;-58
2023/06/25 05:15:52;;;;;;;7.53;6.83;;;18.70;99.90;;;;;;5050287;28;20217;-58
2023/06/25 05:18:19;;;;;;;6.83;6.33;;;18.90;99.90;;;;;;5049078;28;20279;-58
2023/06/25 05:20:46;;;;;;;7.40;6.80;;;19.50;99.90;;;;;;5048403;28;20251;-58
2023/06/25 05:23:13;;;;;;;6.77;5.77;;;20.20;99.90;;;;;;5049020;28;20299;-58
2023/06/25 05:25:41;;;;;;;6.93;6.40;;;20.80;99.90;;;;;;5048514;28;20618;-58
2023/06/25 05:28:08;;;;;;;6.47;5.90;;;21.50;99.90;;;;;;5043788;28;20271;-58
2023/06/25 05:30:36;;;;;;;5.87;5.57;;;22.10;99.90;;;;;;5047162;28;20205;-58
2023/06/25 05:33:03;;;;;;;5.00;4.63;;;22.90;99.90;;;;;;5047860;28;20233;-59
2023/06/25 05:35:30;;;;;;;5.80;5.40;;;23.70;99.90;;;;;;5048649;28;20617;-59
2023/06/25 05:37:57;;;;;;;5.73;5.40;;;24.40;99.90;;;;;;5042824;28;20287;-58
2023/06/25 05:40:24;;;;;;;5.57;5.17;;;25.00;99.90;;;;;;5047771;28;20667;-59
2023/06/25 05:42:54;;;;;;;5.20;4.90;;;25.90;99.90;;;;;;5048393;28;20226;-59
2023/06/25 05:45:21;;;;;;;5.17;4.77;;;26.40;99.90;;;;;;5048608;28;20579;-59
2023/06/25 05:47:48;;;;;;;4.80;4.60;;;26.70;99.90;;;;;;5048831;28;20208;-59
2023/06/25 05:50:15;;;;;;;5.97;5.57;;;27.40;99.90;;;;;;5048482;28;20255;-59
2023/06/25 05:52:43;;;;;;;5.70;5.13;;;27.30;99.90;;;;;;5042163;28;20284;-58
2023/06/25 05:55:11;;;;;;;5.57;5.27;;;27.40;99.90;;;;;;5043758;28;20202;-60
2023/06/25 05:57:38;;;;;;;5.95;5.45;;;27.80;99.90;;;;;;5047807;28;20218;-58
2023/06/25 06:00:09;;;;;;;5.13;4.78;;;27.80;99.90;;;;;;5046557;28;20198;-59
2023/06/25 06:02:36;;;;;;;5.78;5.47;;;28.00;99.90;;;;;;5043790;28;20408;-58
2023/06/25 06:05:04;;;;;;;5.57;5.28;;;28.40;99.90;;;;;;5045271;28;20706;-58
2023/06/25 06:07:31;;;;;;;5.10;4.88;;;28.60;99.90;;;;;;5047539;28;20210;-59
2023/06/25 06:09:58;;;;;;;6.75;6.25;;;28.60;99.90;;;;;;5048103;28;20275;-58
2023/06/25 06:12:25;;;;;;;6.10;5.50;;;28.60;99.90;;;;;;5047706;28;20332;-58
2023/06/25 06:14:52;;;;;;;6.00;5.68;;;28.80;99.90;;;;;;5047792;28;20226;-59
2023/06/25 06:17:21;;;;;;;4.70;4.45;;;29.00;99.90;;;;;;5047105;28;20213;-58
2023/06/25 06:19:48;;;;;;;5.07;4.78;;;29.00;98.80;;;;;;5048733;28;20194;-58
2023/06/25 06:22:15;;;;;;;4.55;4.35;;;29.20;99.90;;;;;;5047743;28;20279;-58
2023/06/25 06:24:42;;;;;;;4.90;4.65;;;29.40;98.70;;;;;;5043590;28;20221;-58
2023/06/25 06:27:09;;;;;;;5.70;5.20;;;29.80;98.80;;;;;;5047452;28;20616;-58
2023/06/25 06:29:36;;;;;;;5.53;5.22;;;30.00;98.10;;;;;;5046311;28;20206;-59
2023/06/25 06:32:04;;;;;;;3.88;3.78;;;29.90;98.00;;;;;;5047040;28;20236;-58
2023/06/25 06:34:32;;;;;;;4.40;4.28;;;30.00;99.10;;;;;;5044516;28;20300;-58
2023/06/25 06:36:59;;;;;;;4.40;4.22;;;30.40;98.10;;;;;;5046906;28;20257;-59
2023/06/25 06:39:26;;;;;;;4.50;4.30;;;30.50;97.00;;;;;;5050718;28;20541;-59
2023/06/25 06:41:53;;;;;;;4.63;4.35;;;30.30;95.40;;;;;;5048375;28;20221;-58
2023/06/25 06:44:20;;;;;;;4.60;4.40;;;30.30;95.90;;;;;;5051572;28;20194;-60
2023/06/25 06:46:47;;;;;;;4.35;4.25;;;30.80;96.10;;;;;;5050996;28;20205;-59
2023/06/25 06:49:16;;;;;;;4.57;4.38;;;30.90;96.90;;;;;;5045434;28;20255;-59
2023/06/25 06:51:44;;;;;;;5.68;5.43;;;31.10;94.90;;;;;;5050489;28;20766;-60
2023/06/25 06:54:11;;;;;;;4.53;4.32;;;31.70;93.50;;;;;;5051465;28;20225;-59
2023/06/25 06:56:39;;;;;;;5.05;4.85;;;31.40;96.20;;;;;;5050928;28;20578;-59
2023/06/25 06:59:06;;;;;;;5.57;5.28;;;31.10;95.10;;;;;;5049522;28;20292;-59
2023/06/25 07:01:34;;;;;;;6.28;5.68;;;30.80;96.50;;;;;;5050578;28;20287;-58
2023/06/25 07:04:01;;;;;;;6.10;5.70;;;31.00;93.80;;;;;;5047591;28;20210;-59
2023/06/25 07:06:27;;;;;;;4.93;4.63;;;31.40;94.40;;;;;;5051883;28;20606;-60
2023/06/25 07:08:56;;;;;;;5.55;5.15;;;31.30;94.50;;;;;;5048995;28;20198;-58
2023/06/25 07:11:23;;;;;;;5.10;4.78;;;31.30;93.00;;;;;;5043132;28;20202;-59
2023/06/25 07:13:51;;;;;;;5.82;5.43;;;31.10;94.90;;;;;;5047991;28;20237;-60
2023/06/25 07:16:18;;;;;;;5.30;5.07;;;31.20;93.80;;;;;;5051467;28;20557;-60
2023/06/25 07:18:45;;;;;;;5.05;4.75;;;31.60;94.20;;;;;;5052910;28;20240;-61
2023/06/25 07:21:11;;;;;;;5.35;4.95;;;31.50;93.70;;;;;;5042361;28;20237;-61
2023/06/25 07:23:38;;;;;;;4.97;4.78;;;31.30;94.30;;;;;;5049148;28;20659;-61
2023/06/25 07:26:07;;;;;;;5.47;5.07;;;31.80;94.60;;;;;;5048319;28;20260;-62
2023/06/25 07:28:34;;;;;;;5.78;5.15;;;31.90;93.00;;;;;;5047233;28;20214;-61
2023/06/25 07:31:01;;;;;;;5.28;4.80;;;31.30;92.10;;;;;;5046338;28;20217;-61
2023/06/25 07:33:28;;;;;;;4.63;4.43;;;31.60;92.10;;;;;;5040170;28;20222;-61
2023/06/25 07:35:55;;;;;;;5.10;4.80;;;31.90;93.00;;;;;;5046413;28;20206;-61
2023/06/25 07:38:23;;;;;;;4.72;4.53;;;32.00;91.20;;;;;;5050475;28;20233;-62
2023/06/25 07:40:50;;;;;;;5.32;4.60;;;32.40;90.40;;;;;;5047302;28;20681;-60
2023/06/25 07:43:18;;;;;;;5.15;4.85;;;32.70;91.10;;;;;;5047294;28;20222;-59
2023/06/25 07:45:45;;;;;;;5.53;5.25;;;33.00;89.20;;;;;;5047737;28;20206;-60
2023/06/25 07:48:12;;;;;;;5.05;4.75;;;32.70;90.00;;;;;;5049967;28;20252;-60
2023/06/25 07:50:39;;;;;;;4.80;4.45;;;32.90;91.30;;;;;;5048188;28;20335;-59
2023/06/25 07:53:06;;;;;;;4.13;4.00;;;33.20;92.20;;;;;;5042902;28;20772;-60
2023/06/25 07:55:40;;;;;;;5.68;5.38;;;33.00;90.80;;;;;;5050060;28;20218;-60
2023/06/25 07:58:08;;;;;;;4.63;4.43;;;33.10;90.40;;;;;;5035192;28;20209;-59
2023/06/25 08:00:36;;;;;;;4.30;4.10;;;33.10;91.70;;;;;;5047992;28;20674;-59
2023/06/25 08:03:03;;;;;;;4.68;4.47;;;32.30;88.50;;;;;;5046557;28;20773;-59
2023/06/25 08:05:30;;;;;;;4.60;4.40;;;32.50;86.70;;;;;;5046906;28;20273;-60
2023/06/25 08:07:57;;;;;;;4.40;4.20;;;32.20;92.30;;;;;;5046273;28;20244;-61
2023/06/25 08:10:24;;;;;;;4.80;4.50;;;33.10;88.10;;;;;;5048473;28;20685;-60
2023/06/25 08:12:52;;;;;;;5.60;5.30;;;33.80;86.10;;;;;;5048393;28;20229;-60
2023/06/25 08:15:20;;;;;;;5.10;4.80;;;33.00;90.30;;;;;;5049111;28;20257;-60
2023/06/25 08:17:48;;;;;;;10.18;5.65;;;33.60;90.70;;;;;;5048827;28;20597;-60
2023/06/25 08:20:15;;;;;;;6.05;5.63;;;32.70;91.10;;;;;;5045238;28;20202;-59
2023/06/25 08:22:42;;;;;;;6.07;5.78;;;32.60;92.30;;;;;;5048076;28;20683;-59
2023/06/25 08:25:20;;;;;;;5.55;5.10;;;33.10;90.90;;;;;;5047003;28;20198;-60
2023/06/25 08:27:47;;;;;;;5.35;4.97;;;33.80;91.50;;;;;;5042330;28;20198;-60
2023/06/25 08:30:14;;;;;;;5.07;4.78;;;34.20;89.60;;;;;;5047887;28;20264;-60
2023/06/25 08:32:46;;;;;;;5.93;5.63;;;34.50;90.60;;;;;;5042697;28;20221;-60
2023/06/25 08:35:15;;;;;;;6.97;6.43;;;33.60;90.90;;;;;;5038434;28;20292;-60
2023/06/25 08:37:42;;;;;;;5.32;4.90;;;32.50;91.40;;;;;;5045829;28;20205;-59
2023/06/25 08:40:12;;;;;;;5.68;5.38;;;32.30;91.80;;;;;;5044984;28;20205;-59
2023/06/25 08:42:41;;;;;;;5.95;5.45;;;32.80;92.10;;;;;;5047882;28;20663;-59
2023/06/25 08:45:09;;;;;;;6.05;5.55;;;33.30;93.00;;;;;;5048914;28;20198;-59
2023/06/25 08:47:39;;;;;;;5.15;4.95;;;33.00;92.00;;;;;;5046401;28;20205;-59
2023/06/25 08:50:07;;;;;;;5.78;5.38;;;33.20;91.70;;;;;;5049061;28;20336;-60
2023/06/25 08:52:36;;;;;;;5.68;5.43;;;33.30;91.60;;;;;;5049640;28;20283;-59
2023/06/25 08:55:05;;;;;;;6.63;6.10;;;33.00;93.40;;;;;;5048940;28;20229;-59
2023/06/25 08:57:32;;;;;;;6.10;5.75;;;33.20;92.30;;;;;;5047715;28;20303;-59
2023/06/25 08:59:59;;;;;;;6.38;5.85;;;32.90;90.80;;;;;;5046864;28;20316;-59
2023/06/25 09:02:31;;;;;;;6.18;5.70;;;33.10;91.70;;;;;;5047349;28;20315;-59
2023/06/25 09:05:04;;;;;;;6.47;5.88;;;32.70;91.90;;;;;;5038912;28;20202;-61
2023/06/25 09:07:35;;;;;;;5.85;5.45;;;32.80;93.70;;;;;;5047566;28;20583;-58
2023/06/25 09:10:02;;;;;;;6.00;5.70;;;32.20;93.30;;;;;;5047768;28;20332;-59
2023/06/25 09:12:29;;;;;;;5.80;5.38;;;31.80;92.50;;;;;;5047393;28;20249;-59
2023/06/25 09:14:57;;;;;;;7.00;6.60;;;32.10;93.10;;;;;;5029377;28;20225;-59
2023/06/25 09:17:28;;;;;;;5.70;5.40;;;31.70;92.40;;;;;;5028015;28;20203;-59
2023/06/25 09:19:55;;;;;;;5.68;5.40;;;31.80;93.90;;;;;;5049024;28;20633;-59
2023/06/25 09:22:25;;;;;;;4.47;4.28;;;32.00;91.60;;;;;;5049755;28;20213;-59
2023/06/25 09:24:54;;;;;;;5.63;5.32;;;32.20;93.80;;;;;;5049995;28;20233;-59
2023/06/25 09:27:24;;;;;;;6.35;5.95;;;32.10;92.80;;;;;;5050000;28;20205;-59
2023/06/25 09:29:56;;;;;;;6.88;6.38;;;31.80;94.70;;;;;;5049353;28;20208;-59
2023/06/25 09:32:23;;;;;;;7.07;6.53;;;32.00;95.90;;;;;;5048745;28;20226;-60
2023/06/25 09:34:50;;;;;;;7.53;6.82;;;32.10;94.50;;;;;;5049769;28;20295;-59
2023/06/25 09:37:19;;;;;;;7.82;6.68;;;32.40;94.40;;;;;;5049860;28;20193;-58
2023/06/25 09:39:46;;;;;;;6.22;5.82;;;32.20;94.70;;;;;;5048258;28;20208;-59
2023/06/25 09:42:16;;;;;;;6.32;5.82;;;31.20;94.30;;;;;;5049174;28;20225;-59
2023/06/25 09:44:44;;;;;;;6.35;5.95;;;31.20;96.70;;;;;;5049676;28;20748;-59
2023/06/25 09:47:14;;;;;;;6.63;6.22;;;31.40;95.50;;;;;;5049567;28;20217;-60
2023/06/25 09:49:42;;;;;;;5.25;4.95;;;31.40;95.20;;;;;;5048926;28;20201;-59
2023/06/25 09:52:10;;;;;;;6.20;5.80;;;32.00;93.00;;;;;;5044532;28;20218;-59
2023/06/25 09:54:39;;;;;;;5.28;5.07;;;31.50;93.10;;;;;;5046845;28;20221;-60
2023/06/25 09:57:10;;;;;;;5.32;5.13;;;31.60;92.50;;;;;;5049280;28;20197;-59
2023/06/25 09:59:39;;;;;;;5.10;4.90;;;31.70;94.60;;;;;;5048689;28;20251;-61
2023/06/25 10:02:08;;;;;;;4.70;4.47;;;31.70;93.30;;;;;;5047062;28;20776;-59
2023/06/25 10:04:36;;;;;;;5.07;4.78;;;32.10;94.20;;;;;;5048749;28;20198;-59
2023/06/25 10:07:04;;;;;;;6.70;4.47;;;32.40;92.30;;;;;;5047872;28;20252;-57
2023/06/25 10:09:30;;;;;;;4.78;4.57;;;32.70;90.40;;;;;;5047668;28;20341;-59
2023/06/25 10:11:58;;;;;;;5.18;4.90;;;32.30;90.50;;;;;;5048374;28;20226;-59
2023/06/25 10:14:26;;;;;;;5.10;4.75;;;31.70;91.10;;;;;;5052472;28;20570;-59
2023/06/25 10:16:56;;;;;;;4.82;4.63;;;31.30;91.40;;;;;;5052847;28;20213;-59
2023/06/25 10:19:24;;;;;;;5.53;5.25;;;31.40;91.70;;;;;;5045276;28;20573;-59
2023/06/25 10:22:04;;;;;;;3.90;3.67;;;31.80;91.60;;;;;;5046323;28;20520;-58
2023/06/25 10:24:41;;;;;;;4.53;4.32;;;31.90;90.30;;;;;;5052324;28;20197;-59
2023/06/25 10:27:19;;;;;;;4.90;4.65;;;31.80;88.30;;;;;;5047542;28;20193;-59
2023/06/25 10:29:46;;;;;;;4.35;4.15;;;32.50;92.00;;;;;;5051836;28;20283;-59
2023/06/25 10:32:14;;;;;;;3.80;3.70;;;32.90;85.00;;;;;;5051645;28;20222;-60
2023/06/25 10:34:41;;;;;;;4.68;4.43;;;33.20;90.10;;;;;;5052125;28;20217;-60
2023/06/25 10:37:13;;;;;;;5.25;4.95;;;33.20;86.40;;;;;;5042784;28;20202;-59
2023/06/25 10:39:41;;;;;;;4.45;4.15;;;32.70;88.50;;;;;;5050660;28;20228;-59
2023/06/25 10:42:09;;;;;;;4.80;4.60;;;32.90;89.30;;;;;;5045934;28;20222;-59
2023/06/25 10:44:36;;;;;;;4.82;4.43;;;33.40;89.30;;;;;;5052596;28;20696;-59
2023/06/25 10:47:04;;;;;;;4.05;3.85;;;33.40;86.80;;;;;;5052980;28;20202;-59
2023/06/25 10:49:33;;;;;;;4.90;4.70;;;33.40;90.40;;;;;;5050211;28;20202;-60
2023/06/25 10:52:00;;;;;;;4.43;4.22;;;33.20;87.40;;;;;;5046456;28;20267;-60
2023/06/25 10:54:27;;;;;;;4.90;4.70;;;33.30;87.40;;;;;;5051931;28;20209;-59
2023/06/25 10:56:55;;;;;;;5.88;4.80;;;32.80;87.90;;;;;;5051616;28;20201;-59
2023/06/25 10:59:25;;;;;;;4.07;3.88;;;32.70;91.40;;;;;;5051549;28;20251;-59
2023/06/25 11:01:52;;;;;;;4.65;4.50;;;32.10;90.70;;;;;;5050735;28;20275;-59
2023/06/25 11:04:19;;;;;;;4.03;3.90;;;31.70;90.70;;;;;;5042524;28;20209;-59
2023/06/25 11:06:48;;;;;;;4.55;4.25;;;31.30;89.50;;;;;;5051266;28;20567;-59
2023/06/25 11:09:16;;;;;;;4.07;3.83;;;31.00;92.60;;;;;;5051754;28;20206;-59
2023/06/25 11:11:42;;;;;;;4.53;4.32;;;31.20;90.60;;;;;;5051483;28;20676;-59
2023/06/25 11:14:09;;;;;;;4.80;4.60;;;31.10;90.80;;;;;;5048670;28;20555;-59
2023/06/25 11:16:36;;;;;;;4.00;3.90;;;30.90;90.70;;;;;;5052000;28;20714;-59
2023/06/25 11:19:03;;;;;;;4.20;3.97;;;31.00;88.40;;;;;;5051421;28;20202;-59
2023/06/25 11:21:35;;;;;;;4.45;4.10;;;30.80;91.70;;;;;;5051570;28;20213;-59
2023/06/25 11:24:08;;;;;;;5.70;5.25;;;30.60;91.80;;;;;;5049285;28;20210;-59
2023/06/25 11:26:40;;;;;;;4.50;4.13;;;30.20;91.50;;;;;;5051924;28;20229;-58
2023/06/25 11:29:07;;;;;;;4.60;4.30;;;29.90;90.80;;;;;;5051080;28;20975;-59
2023/06/25 11:31:42;;;;;;;3.75;3.45;;;30.10;91.50;;;;;;5051570;28;20571;-59
2023/06/25 11:34:12;;;;;;;3.97;3.72;;;30.20;90.60;;;;;;5049480;28;20296;-59
2023/06/25 11:36:40;;;;;;;4.03;3.65;;;30.20;89.50;;;;;;5051683;28;20304;-59
2023/06/25 11:39:09;;;;;;;4.95;4.53;;;30.00;89.30;;;;;;5051007;28;20302;-59
2023/06/25 11:41:36;;;;;;;4.80;4.60;;;30.00;88.40;;;;;;5050765;28;20220;-59
2023/06/25 11:44:03;;;;;;;3.45;3.35;;;29.90;91.50;;;;;;5051053;28;20194;-59
2023/06/25 11:46:30;;;;;;;4.43;4.22;;;29.90;89.80;;;;;;5049076;28;20255;-59
2023/06/25 11:48:57;;;;;;;4.07;3.88;;;30.10;92.50;;;;;;5043046;28;21243;-59
2023/06/25 11:51:24;;;;;;;4.35;4.15;;;29.90;91.90;;;;;;5046109;28;20285;-59
2023/06/25 11:53:51;;;;;;;7.57;4.05;;;30.10;92.00;;;;;;5085777;22;20695;-62
2023/06/25 11:56:20;;;;;;;4.18;3.97;;;30.00;90.10;;;;;;5069251;28;20266;-61
2023/06/25 11:58:46;;;;;;;4.22;4.10;;;30.00;91.10;;;;;;5072482;28;20197;-62
2023/06/25 12:01:13;;;;;;;4.68;4.13;;;29.50;90.10;;;;;;5063370;28;20236;-62
2023/06/25 12:03:40;;;;;;;3.55;3.40;;;29.30;90.90;;;;;;5072452;28;20220;-62
2023/06/25 12:06:08;;;;;;;3.92;3.72;;;29.30;92.30;;;;;;5072635;28;20709;-62
2023/06/25 12:08:35;;;;;;;4.25;3.92;;;29.30;90.00;;;;;;5072713;28;20204;-62
2023/06/25 12:11:02;;;;;;;3.65;3.45;;;29.30;93.50;;;;;;5064543;28;20201;-61
2023/06/25 12:13:30;;;;;;;4.25;4.05;;;29.30;91.40;;;;;;5072365;28;20217;-61
2023/06/25 12:15:57;;;;;;;3.70;3.60;;;29.20;90.10;;;;;;5075661;28;20252;-61
2023/06/25 12:18:24;;;;;;;3.95;3.75;;;29.20;90.20;;;;;;5069937;28;20219;-61
2023/06/25 12:20:51;;;;;;;4.10;3.90;;;29.20;90.60;;;;;;5063129;28;20202;-61
2023/06/25 12:23:18;;;;;;;4.05;3.85;;;29.20;90.00;;;;;;5068917;28;20217;-61
2023/06/25 12:25:45;;;;;;;3.25;3.15;;;29.10;90.00;;;;;;5067053;28;20810;-62
2023/06/25 12:28:12;;;;;;;3.78;3.67;;;29.20;91.10;;;;;;5069274;28;20258;-61
2023/06/25 12:30:41;;;;;;;3.72;3.58;;;29.30;91.10;;;;;;5070954;28;20659;-63
2023/06/25 12:33:08;;;;;;;4.10;3.90;;;29.40;92.90;;;;;;5069459;28;20260;-62
2023/06/25 12:35:35;;;;;;;3.95;3.75;;;29.30;87.20;;;;;;5070149;28;20589;-61
2023/06/25 12:38:02;;;;;;;4.43;4.22;;;29.20;91.40;;;;;;5071907;28;20197;-61
2023/06/25 12:40:29;;;;;;;3.90;3.78;;;29.10;90.10;;;;;;5064837;28;20201;-63
2023/06/25 12:42:56;;;;;;;3.63;3.53;;;29.10;90.40;;;;;;5069869;28;20282;-61
2023/06/25 12:45:24;;;;;;;4.65;3.95;;;29.30;93.00;;;;;;5069833;28;20295;-62
2023/06/25 12:47:52;;;;;;;3.33;3.22;;;29.10;92.00;;;;;;5068156;28;20209;-61
2023/06/25 12:50:19;;;;;;;4.53;3.92;;;28.90;90.80;;;;;;5070848;28;20624;-62
2023/06/25 12:52:46;;;;;;;3.67;3.53;;;28.90;90.80;;;;;;5071373;28;20229;-62